Time;durP1;ratioP1;P1;durP2;ratioP2;P2;SDS_P1;SDS_P2;PMS_P1;PMS_P2;Temp;Humidity;BMP_temperature;BMP_pressure;BME280_temperature;BME280_humidity;BME280_pressure;Samples;Min_cycle;Max_cycle;Signal;HPM_P1;HPM_P2
2022/03/21 00:01:52;;;;;;;;;;;;;;;;;;5037463;28;19932;-46
2022/03/21 00:04:17;;;;;;;;;;;;;;;;;;5027684;28;20368;-48
2022/03/21 00:06:43;;;;;;;;;;;;;;;;;;5037573;28;19913;-48
2022/03/21 00:09:08;;;;;;;;;;;;;;;;;;5037300;28;19917;-49
2022/03/21 00:11:33;;;;;;;;;;;;;;;;;;5037427;28;20336;-48
2022/03/21 00:13:58;;;;;;;;;;;;;;;;;;5052638;28;20047;-48
2022/03/21 00:16:24;;;;;;;;;;;;;;;;;;5037309;28;20375;-48
2022/03/21 00:18:49;;;;;;;;;;;;;;;;;;5052532;28;20000;-50
2022/03/21 00:21:15;;;;;;;;;;;;;;;;;;5037125;28;20396;-49
2022/03/21 00:23:41;;;;;;;;;;;;;;;;;;5037173;28;19913;-48
2022/03/21 00:26:06;;;;;;;;;;;;;;;;;;5035600;28;20012;-48
2022/03/21 00:28:31;;;;;;;;;;;;;;;;;;5036809;28;19909;-49
2022/03/21 00:30:56;;;;;;;;;;;;;;;;;;5037224;28;19909;-46
2022/03/21 00:33:21;;;;;;;;;;;;;;;;;;5036884;28;20004;-47
2022/03/21 00:35:48;;;;;;;;;;;;;;;;;;5036728;28;19913;-49
2022/03/21 00:38:14;;;;;;;;;;;;;;;;;;5037001;28;20008;-48
2022/03/21 00:40:39;;;;;;;;;;;;;;;;;;5036125;28;19952;-48
2022/03/21 00:43:04;;;;;;;;;;;;;;;;;;5036444;28;19913;-48
2022/03/21 00:45:29;;;;;;;;;;;;;;;;;;5036421;28;19968;-49
2022/03/21 00:47:54;;;;;;;;;;;;;;;;;;5036828;28;19979;-48
2022/03/21 00:50:19;;;;;;;;;;;;;;;;;;5043458;22;19925;-47
2022/03/21 00:52:45;;;;;;;;;;;;;;;;;;5036631;28;19913;-48
2022/03/21 00:55:10;;;;;;;;;;;;;;;;;;5036454;28;20003;-48
2022/03/21 00:57:35;;;;;;;;;;;;;;;;;;5035902;28;19936;-48
2022/03/21 01:00:00;;;;;;;;;;;;;;;;;;5036242;28;19956;-48
2022/03/21 01:02:26;;;;;;;;;;;;;;;;;;5036220;28;19909;-48
2022/03/21 01:04:51;;;;;;;;;;;;;;;;;;5036196;28;19909;-50
2022/03/21 01:07:16;;;;;;;;;;;;;;;;;;5036422;28;19917;-46
2022/03/21 01:09:41;;;;;;;;;;;;;;;;;;5036051;28;19958;-48
2022/03/21 01:12:07;;;;;;;;;;;;;;;;;;5036283;28;19917;-46
2022/03/21 01:14:32;;;;;;;;;;;;;;;;;;5036215;28;20288;-47
2022/03/21 01:16:58;;;;;;;;;;;;;;;;;;5035528;28;19913;-47
2022/03/21 01:19:23;;;;;;;;;;;;;;;;;;5036087;28;20287;-46
2022/03/21 01:21:48;;;;;;;;;;;;;;;;;;5034765;28;19909;-47
2022/03/21 01:24:13;;;;;;;;;;;;;;;;;;5035403;28;19920;-46
2022/03/21 01:26:38;;;;;;;;;;;;;;;;;;5035515;28;19921;-48
2022/03/21 01:29:04;;;;;;;;;;;;;;;;;;5036107;28;20360;-47
2022/03/21 01:31:29;;;;;;;;;;;;;;;;;;5035849;28;19905;-47
2022/03/21 01:33:54;;;;;;;;;;;;;;;;;;5035779;28;19909;-47
2022/03/21 01:36:19;;;;;;;;;;;;;;;;;;5035904;28;19913;-47
2022/03/21 01:38:44;;;;;;;;;;;;;;;;;;5035179;28;20323;-47
2022/03/21 01:41:09;;;;;;;;;;;;;;;;;;5035623;28;19909;-47
2022/03/21 01:43:34;;;;;;;;;;;;;;;;;;5035427;28;19909;-47
2022/03/21 01:45:59;;;;;;;;;;;;;;;;;;5035369;28;19921;-49
2022/03/21 01:48:25;;;;;;;;;;;;;;;;;;5035241;28;19920;-47
2022/03/21 01:50:50;;;;;;;;;;;;;;;;;;5035279;28;19929;-46
2022/03/21 01:55:59;;;;;;;;;;;;;;;;;;5034768;28;20375;-47
2022/03/21 01:58:27;;;;;;;;;;;;;;;;;;5035307;28;19913;-48
2022/03/21 02:00:52;;;;;;;;;;;;;;;;;;5035210;28;19912;-46
2022/03/21 02:03:19;;;;;;;;;;;;;;;;;;5043971;28;19910;-49
2022/03/21 02:05:47;;;;;;;;;;;;;;;;;;5015349;28;19913;-50
2022/03/21 02:08:12;;;;;;;;;;;;;;;;;;5019130;28;19924;-48
2022/03/21 02:10:37;;;;;;;;;;;;;;;;;;5035010;28;20345;-48
2022/03/21 02:13:02;;;;;;;;;;;;;;;;;;5050311;28;19910;-46
2022/03/21 02:15:27;;;;;;;;;;;;;;;;;;5035151;28;19917;-51
2022/03/21 02:17:52;;;;;;;;;;;;;;;;;;5035157;28;19936;-50
2022/03/21 02:20:18;;;;;;;;;;;;;;;;;;5035059;28;19909;-48
2022/03/21 02:22:43;;;;;;;;;;;;;;;;;;5034894;28;20361;-48
2022/03/21 02:25:08;;;;;;;;;;;;;;;;;;5034429;28;19959;-47
2022/03/21 02:27:33;;;;;;;;;;;;;;;;;;5033159;28;19941;-47
2022/03/21 02:29:58;;;;;;;;;;;;;;;;;;5034705;28;19951;-50
2022/03/21 02:32:23;;;;;;;;;;;;;;;;;;5034603;28;20376;-48
2022/03/21 02:34:48;;;;;;;;;;;;;;;;;;5034767;28;19944;-49
2022/03/21 02:37:13;;;;;;;;;;;;;;;;;;5034715;28;19916;-48
2022/03/21 02:39:39;;;;;;;;;;;;;;;;;;5034455;28;20391;-47
2022/03/21 02:42:04;;;;;;;;;;;;;;;;;;5034553;28;19916;-48
2022/03/21 02:44:29;;;;;;;;;;;;;;;;;;5034845;28;19910;-48
2022/03/21 02:46:54;;;;;;;;;;;;;;;;;;5034292;28;20360;-49
2022/03/21 02:49:19;;;;;;;;;;;;;;;;;;5034611;28;19939;-48
2022/03/21 02:51:44;;;;;;;;;;;;;;;;;;5034275;28;19921;-48
2022/03/21 02:54:10;;;;;;;;;;;;;;;;;;5034512;28;20368;-47
2022/03/21 02:56:36;;;;;;;;;;;;;;;;;;5033631;28;19991;-48
2022/03/21 02:59:01;;;;;;;;;;;;;;;;;;5034596;28;19960;-48
2022/03/21 03:01:26;;;;;;;;;;;;;;;;;;5034769;28;19909;-47
2022/03/21 03:03:51;;;;;;;;;;;;;;;;;;5035080;28;19916;-50
2022/03/21 03:06:16;;;;;;;;;;;;;;;;;;5038434;28;19913;-48
2022/03/21 03:08:42;;;;;;;;;;;;;;;;;;5038495;28;20043;-48
2022/03/21 03:11:07;;;;;;;;;;;;;;;;;;5038319;28;20071;-48
2022/03/21 03:13:32;;;;;;;;;;;;;;;;;;5038505;28;19992;-48
2022/03/21 03:15:57;;;;;;;;;;;;;;;;;;5037124;28;19913;-48
2022/03/21 03:18:23;;;;;;;;;;;;;;;;;;5038256;28;20292;-48
2022/03/21 03:20:48;;;;;;;;;;;;;;;;;;5038180;28;19917;-48
2022/03/21 03:23:13;;;;;;;;;;;;;;;;;;5038159;28;19995;-48
2022/03/21 03:25:38;;;;;;;;;;;;;;;;;;5037498;28;19916;-47
2022/03/21 03:28:04;;;;;;;;;;;;;;;;;;5037878;28;19913;-48
2022/03/21 03:30:29;;;;;;;;;;;;;;;;;;5037958;28;19909;-47
2022/03/21 03:32:54;;;;;;;;;;;;;;;;;;5038000;28;19963;-48
2022/03/21 03:35:19;;;;;;;;;;;;;;;;;;5037859;28;19916;-47
2022/03/21 03:37:44;;;;;;;;;;;;;;;;;;5037792;28;20268;-48
2022/03/21 03:40:09;;;;;;;;;;;;;;;;;;5037944;28;19909;-47
2022/03/21 03:42:35;;;;;;;;;;;;;;;;;;5037824;28;19916;-49
2022/03/21 03:45:00;;;;;;;;;;;;;;;;;;5037878;28;19909;-48
2022/03/21 03:47:25;;;;;;;;;;;;;;;;;;5037567;28;19920;-48
2022/03/21 03:49:51;;;;;;;;;;;;;;;;;;5037476;28;19924;-48
2022/03/21 03:52:16;;;;;;;;;;;;;;;;;;5037920;28;20276;-47
2022/03/21 03:54:41;;;;;;;;;;;;;;;;;;5037596;28;19916;-49
2022/03/21 03:57:06;;;;;;;;;;;;;;;;;;5036460;28;19936;-50
2022/03/21 03:59:31;;;;;;;;;;;;;;;;;;5037680;28;20336;-48
2022/03/21 04:01:56;;;;;;;;;;;;;;;;;;5037697;28;20009;-50
2022/03/21 04:04:21;;;;;;;;;;;;;;;;;;5037396;28;20004;-48
2022/03/21 04:06:46;;;;;;;;;;;;;;;;;;5037345;28;19913;-48
2022/03/21 04:09:12;;;;;;;;;;;;;;;;;;5037494;28;19914;-48
2022/03/21 04:11:37;;;;;;;;;;;;;;;;;;5037422;28;20357;-48
2022/03/21 04:14:02;;;;;;;;;;;;;;;;;;5037114;28;20246;-48
2022/03/21 04:16:27;;;;;;;;;;;;;;;;;;5035923;28;19909;-48
2022/03/21 04:18:52;;;;;;;;;;;;;;;;;;5037135;28;19916;-48
2022/03/21 04:21:17;;;;;;;;;;;;;;;;;;5037277;28;19916;-48
2022/03/21 04:23:42;;;;;;;;;;;;;;;;;;5037288;28;19909;-47
2022/03/21 04:26:07;;;;;;;;;;;;;;;;;;5035437;28;19917;-47
2022/03/21 04:28:33;;;;;;;;;;;;;;;;;;5036984;28;20237;-49
2022/03/21 04:30:58;;;;;;;;;;;;;;;;;;5036932;28;19920;-48
2022/03/21 04:33:23;;;;;;;;;;;;;;;;;;5036708;28;19917;-47
2022/03/21 04:35:49;;;;;;;;;;;;;;;;;;5036882;28;20368;-48
2022/03/21 04:38:14;;;;;;;;;;;;;;;;;;5052373;28;19909;-48
2022/03/21 04:40:39;;;;;;;;;;;;;;;;;;5036824;28;19919;-47
2022/03/21 04:43:04;;;;;;;;;;;;;;;;;;5036638;28;19909;-49
2022/03/21 04:45:30;;;;;;;;;;;;;;;;;;5036669;28;20263;-48
2022/03/21 04:47:55;;;;;;;;;;;;;;;;;;5036663;28;19909;-49
2022/03/21 04:50:20;;;;;;;;;;;;;;;;;;5036304;28;19937;-47
2022/03/21 04:52:46;;;;;;;;;;;;;;;;;;5036540;28;19932;-51
2022/03/21 04:55:15;;;;;;;;;;;;;;;;;;5036599;28;19916;-49
2022/03/21 04:57:40;;;;;;;;;;;;;;;;;;5035685;28;19917;-48
2022/03/21 05:00:05;;;;;;;;;;;;;;;;;;5036716;28;19916;-50
2022/03/21 05:02:30;;;;;;;;;;;;;;;;;;5036340;28;19917;-47
2022/03/21 05:04:55;;;;;;;;;;;;;;;;;;5016612;28;19910;-48
2022/03/21 05:07:21;;;;;;;;;;;;;;;;;;5016469;28;20288;-48
2022/03/21 05:09:46;;;;;;;;;;;;;;;;;;5016414;28;20280;-48
2022/03/21 05:12:11;;;;;;;;;;;;;;;;;;5016597;28;19935;-48
2022/03/21 05:14:36;;;;;;;;;;;;;;;;;;5016147;28;19910;-50
2022/03/21 05:17:02;;;;;;;;;;;;;;;;;;5016376;28;20292;-48
2022/03/21 05:19:27;;;;;;;;;;;;;;;;;;5016425;28;20056;-49
2022/03/21 05:21:52;;;;;;;;;;;;;;;;;;5016207;28;20388;-49
2022/03/21 05:32:29;;;;;;;;;;;;;;;;;;5035827;28;20421;-49
2022/03/21 05:37:38;;;;;;;;;;;;;;;;;;5035728;28;20391;-50
2022/03/21 05:42:47;;;;;;;;;;;;;;;;;;5035667;28;20406;-50
2022/03/21 05:45:19;;;;;;;;;;;;;;;;;;5035570;28;20004;-48
2022/03/21 05:50:28;;;;;;;;;;;;;;;;;;5035236;28;19932;-48
2022/03/21 05:52:57;;;;;;;;;;;;;;;;;;5034627;28;20304;-48
2022/03/21 05:55:22;;;;;;;;;;;;;;;;;;5034527;28;19967;-48
2022/03/21 05:57:47;;;;;;;;;;;;;;;;;;5033603;28;19913;-49
2022/03/21 06:00:21;;;;;;;;;;;;;;;;;;5036866;28;19944;-50
2022/03/21 06:02:46;;;;;;;;;;;;;;;;;;5036994;28;19913;-50
2022/03/21 06:05:11;;;;;;;;;;;;;;;;;;5036808;28;19909;-50
2022/03/21 06:07:36;;;;;;;;;;;;;;;;;;5036648;28;19913;-49
2022/03/21 06:10:02;;;;;;;;;;;;;;;;;;5036668;28;19916;-49
2022/03/21 06:12:27;;;;;;;;;;;;;;;;;;5036799;28;19909;-50
2022/03/21 06:14:52;;;;;;;;;;;;;;;;;;5036055;28;19971;-53
2022/03/21 06:17:17;;;;;;;;;;;;;;;;;;5036229;28;19983;-49
2022/03/21 06:19:42;;;;;;;;;;;;;;;;;;5036095;28;19921;-52
2022/03/21 06:22:07;;;;;;;;;;;;;;;;;;5036989;28;20292;-50
2022/03/21 06:24:32;;;;;;;;;;;;;;;;;;5035812;28;19909;-50
2022/03/21 06:26:57;;;;;;;;;;;;;;;;;;5034580;28;19917;-50
2022/03/21 06:29:22;;;;;;;;;;;;;;;;;;5035610;28;20273;-49
2022/03/21 06:31:47;;;;;;;;;;;;;;;;;;5024927;28;20313;-51
2022/03/21 06:34:13;;;;;;;;;;;;;;;;;;5021937;28;20009;-50
2022/03/21 06:36:38;;;;;;;;;;;;;;;;;;5024871;28;19917;-49
2022/03/21 06:39:05;;;;;;;;;;;;;;;;;;5022848;28;20288;-49
2022/03/21 06:41:30;;;;;;;;;;;;;;;;;;5021560;28;20039;-49
2022/03/21 06:43:55;;;;;;;;;;;;;;;;;;5025992;28;20004;-49
2022/03/21 06:46:20;;;;;;;;;;;;;;;;;;5023412;28;19980;-50
2022/03/21 06:48:45;;;;;;;;;;;;;;;;;;5023719;28;20029;-50
2022/03/21 06:51:10;;;;;;;;;;;;;;;;;;5032118;28;19928;-52
2022/03/21 06:53:35;;;;;;;;;;;;;;;;;;5024668;28;19913;-50
2022/03/21 06:56:00;;;;;;;;;;;;;;;;;;5018588;28;19999;-50
2022/03/21 06:58:25;;;;;;;;;;;;;;;;;;5013951;28;19920;-51
2022/03/21 07:00:51;;;;;;;;;;;;;;;;;;5007438;28;20352;-50
2022/03/21 07:03:16;;;;;;;;;;;;;;;;;;5008005;28;20035;-51
2022/03/21 07:05:41;;;;;;;;;;;;;;;;;;5004084;28;20443;-52
2022/03/21 07:08:06;;;;;;;;;;;;;;;;;;5000266;28;19966;-50
2022/03/21 07:10:35;;;;;;;;;;;;;;;;;;4995598;28;20043;-49
2022/03/21 07:13:00;;;;;;;;;;;;;;;;;;4982057;28;20004;-48
2022/03/21 07:15:25;;;;;;;;;;;;;;;;;;4948616;28;19921;-51
2022/03/21 07:17:51;;;;;;;;;;;;;;;;;;4900900;28;21555;-48
2022/03/21 07:20:17;;;;;;;;;;;;;;;;;;4828184;28;22153;-51
2022/03/21 07:22:42;;;;;;;;;;;;;;;;;;4790825;28;20069;-50
2022/03/21 07:25:08;;;;;;;;;;;;;;;;;;4760624;28;19970;-53
2022/03/21 07:27:33;;;;;;;;;;;;;;;;;;4714886;28;19925;-54
2022/03/21 07:29:58;;;;;;;;;;;;;;;;;;4659803;28;20058;-50
2022/03/21 07:32:23;;;;;;;;;;;;;;;;;;4672953;28;19971;-52
2022/03/21 07:34:48;;;;;;;;;;;;;;;;;;4709428;28;19921;-50
2022/03/21 07:37:13;;;;;;;;;;;;;;;;;;4809469;28;20076;-51
2022/03/21 07:39:39;;;;;;;;;;;;;;;;;;4840503;28;20007;-51
2022/03/21 07:42:04;;;;;;;;;;;;;;;;;;4829301;28;20048;-51
2022/03/21 07:47:22;;;;;;;;;;;;;;;;;;4817023;28;20587;-51
2022/03/21 07:49:48;;;;;;;;;;;;;;;;;;4853061;28;21970;-54
2022/03/21 07:52:13;;;;;;;;;;;;;;;;;;4858466;28;20606;-52
2022/03/21 07:54:39;;;;;;;;;;;;;;;;;;4843979;28;19979;-52
2022/03/21 07:57:04;;;;;;;;;;;;;;;;;;4852766;28;20572;-50
2022/03/21 07:59:30;;;;;;;;;;;;;;;;;;4863787;28;20718;-51
2022/03/21 08:01:57;;;;;;;;;;;;;;;;;;4839796;28;19957;-50
2022/03/21 08:04:23;;;;;;;;;;;;;;;;;;4842557;28;20459;-53
2022/03/21 08:06:48;;;;;;;;;;;;;;;;;;4813353;28;20146;-54
2022/03/21 08:09:13;;;;;;;;;;;;;;;;;;4810850;28;23675;-54
2022/03/21 08:11:38;;;;;;;;;;;;;;;;;;4754013;28;21514;-52
2022/03/21 08:14:03;;;;;;;;;;;;;;;;;;4694656;28;20609;-54
2022/03/21 08:16:28;;;;;;;;;;;;;;;;;;4575070;28;22633;-54
2022/03/21 08:18:53;;;;;;;;;;;;;;;;;;4526624;28;20704;-54
2022/03/21 08:21:19;;;;;;;;;;;;;;;;;;4462935;28;22234;-51
2022/03/21 08:23:45;;;;;;;;;;;;;;;;;;4499439;28;19971;-50
2022/03/21 08:26:10;;;;;;;;;;;;;;;;;;4498348;28;23455;-53
2022/03/21 08:28:35;;;;;;;;;;;;;;;;;;4652998;28;21237;-50
2022/03/21 08:31:00;;;;;;;;;;;;;;;;;;4552952;28;22345;-52
2022/03/21 08:33:25;;;;;;;;;;;;;;;;;;4673858;28;19999;-53
2022/03/21 08:35:50;;;;;;;;;;;;;;;;;;4617305;28;20007;-54
2022/03/21 08:38:16;;;;;;;;;;;;;;;;;;4677173;28;23192;-50
2022/03/21 08:40:41;;;;;;;;;;;;;;;;;;4707358;28;22015;-54
2022/03/21 08:43:06;;;;;;;;;;;;;;;;;;4721733;28;23896;-53
2022/03/21 08:45:32;;;;;;;;;;;;;;;;;;4700763;28;23103;-55
2022/03/21 08:47:57;;;;;;;;;;;;;;;;;;4659531;28;23129;-53
2022/03/21 08:50:22;;;;;;;;;;;;;;;;;;4643478;28;19984;-52
2022/03/21 08:52:47;;;;;;;;;;;;;;;;;;4669695;28;22046;-52
2022/03/21 08:55:12;;;;;;;;;;;;;;;;;;4639646;28;20014;-54
2022/03/21 08:57:37;;;;;;;;;;;;;;;;;;4654279;28;21203;-54
2022/03/21 09:00:04;;;;;;;;;;;;;;;;;;4671200;28;19922;-54
2022/03/21 09:02:30;;;;;;;;;;;;;;;;;;4606986;28;22128;-49
2022/03/21 09:04:55;;;;;;;;;;;;;;;;;;4646976;28;20472;-51
2022/03/21 09:07:20;;;;;;;;;;;;;;;;;;4690078;28;20019;-54
2022/03/21 09:09:45;;;;;;;;;;;;;;;;;;4703345;28;19925;-52
2022/03/21 09:12:11;;;;;;;;;;;;;;;;;;4478264;28;19996;-54
2022/03/21 09:14:36;;;;;;;;;;;;;;;;;;4583028;28;21541;-54
2022/03/21 09:17:01;;;;;;;;;;;;;;;;;;4631313;28;19928;-51
2022/03/21 09:19:29;;;;;;;;;;;;;;;;;;4679764;28;20827;-51
2022/03/21 09:21:54;;;;;;;;;;;;;;;;;;4672111;28;20008;-53
2022/03/21 09:24:19;;;;;;;;;;;;;;;;;;4695922;28;22557;-54
2022/03/21 09:26:44;;;;;;;;;;;;;;;;;;4660096;28;21888;-53
2022/03/21 09:29:09;;;;;;;;;;;;;;;;;;4589330;28;20113;-52
2022/03/21 09:31:36;;;;;;;;;;;;;;;;;;4699636;28;21618;-52
2022/03/21 09:34:01;;;;;;;;;;;;;;;;;;4734633;28;19925;-55
2022/03/21 09:36:26;;;;;;;;;;;;;;;;;;4716525;28;19921;-54
2022/03/21 09:38:51;;;;;;;;;;;;;;;;;;4776324;28;20071;-54
2022/03/21 09:41:22;;;;;;;;;;;;;;;;;;4779923;28;19921;-55
2022/03/21 09:43:47;;;;;;;;;;;;;;;;;;4764243;28;19928;-55
2022/03/21 09:46:12;;;;;;;;;;;;;;;;;;4762208;28;19983;-56
2022/03/21 09:48:37;;;;;;;;;;;;;;;;;;4769671;28;19928;-54
2022/03/21 09:51:03;;;;;;;;;;;;;;;;;;4783966;28;21713;-52
2022/03/21 09:53:28;;;;;;;;;;;;;;;;;;4768239;28;20063;-55
2022/03/21 09:55:54;;;;;;;;;;;;;;;;;;4762124;28;20026;-54
2022/03/21 09:58:20;;;;;;;;;;;;;;;;;;4749685;28;24453;-55
2022/03/21 10:00:47;;;;;;;;;;;;;;;;;;4745028;28;20064;-54
2022/03/21 10:03:12;;;;;;;;;;;;;;;;;;4744476;28;20146;-53
2022/03/21 10:05:37;;;;;;;;;;;;;;;;;;4747704;28;22772;-52
2022/03/21 10:08:02;;;;;;;;;;;;;;;;;;4739306;28;19928;-53
2022/03/21 10:10:27;;;;;;;;;;;;;;;;;;4741739;28;19933;-52
2022/03/21 10:12:53;;;;;;;;;;;;;;;;;;4695457;28;22472;-50
2022/03/21 10:15:18;;;;;;;;;;;;;;;;;;4693098;28;19921;-52
2022/03/21 10:17:43;;;;;;;;;;;;;;;;;;4692821;28;22728;-54
2022/03/21 10:20:11;;;;;;;;;;;;;;;;;;4645917;28;23561;-53
2022/03/21 10:22:37;;;;;;;;;;;;;;;;;;4689348;28;19921;-55
2022/03/21 10:25:02;;;;;;;;;;;;;;;;;;4719045;28;23490;-53
2022/03/21 10:27:30;;;;;;;;;;;;;;;;;;4639475;28;20466;-54
2022/03/21 10:29:59;;;;;;;;;;;;;;;;;;4600364;28;20671;-52
2022/03/21 10:32:25;;;;;;;;;;;;;;;;;;4657518;28;20663;-54
2022/03/21 10:34:50;;;;;;;;;;;;;;;;;;4664030;28;19984;-53
2022/03/21 10:37:15;;;;;;;;;;;;;;;;;;4686641;28;19921;-54
2022/03/21 10:39:40;;;;;;;;;;;;;;;;;;4723416;28;22299;-54
2022/03/21 10:42:05;;;;;;;;;;;;;;;;;;4681000;28;21948;-55
2022/03/21 10:44:30;;;;;;;;;;;;;;;;;;4674497;28;20863;-55
2022/03/21 10:46:56;;;;;;;;;;;;;;;;;;4660411;28;21591;-54
2022/03/21 10:49:21;;;;;;;;;;;;;;;;;;4658240;28;19983;-54
2022/03/21 10:51:46;;;;;;;;;;;;;;;;;;4649102;28;24408;-53
2022/03/21 10:54:11;;;;;;;;;;;;;;;;;;4629677;28;24917;-53
2022/03/21 10:56:36;;;;;;;;;;;;;;;;;;4670155;28;19980;-52
2022/03/21 10:59:01;;;;;;;;;;;;;;;;;;4680596;28;22257;-55
2022/03/21 11:01:27;;;;;;;;;;;;;;;;;;4618741;28;33483;-52
2022/03/21 11:03:52;;;;;;;;;;;;;;;;;;4550529;28;41261;-49
2022/03/21 11:06:17;;;;;;;;;;;;;;;;;;4511046;28;20234;-56
2022/03/21 11:08:42;;;;;;;;;;;;;;;;;;4477920;28;20816;-52
2022/03/21 11:11:08;;;;;;;;;;;;;;;;;;4585529;28;23870;-54
2022/03/21 11:13:33;;;;;;;;;;;;;;;;;;4607367;28;22333;-52
2022/03/21 11:16:04;;;;;;;;;;;;;;;;;;4587893;28;19921;-51
2022/03/21 11:18:30;;;;;;;;;;;;;;;;;;4639507;28;19995;-54
2022/03/21 11:20:55;;;;;;;;;;;;;;;;;;4613518;28;19922;-53
2022/03/21 11:23:21;;;;;;;;;;;;;;;;;;4658194;28;19992;-54
2022/03/21 11:25:46;;;;;;;;;;;;;;;;;;4657905;28;19964;-56
2022/03/21 11:28:12;;;;;;;;;;;;;;;;;;4616276;28;19921;-55
2022/03/21 11:30:37;;;;;;;;;;;;;;;;;;4681266;28;22005;-51
2022/03/21 11:33:04;;;;;;;;;;;;;;;;;;4741600;28;20030;-54
2022/03/21 11:35:30;;;;;;;;;;;;;;;;;;4657076;28;22335;-52
2022/03/21 11:37:58;;;;;;;;;;;;;;;;;;4541078;28;21597;-55
2022/03/21 11:40:23;;;;;;;;;;;;;;;;;;4487214;28;19959;-51
2022/03/21 11:42:48;;;;;;;;;;;;;;;;;;4554197;28;20746;-52
2022/03/21 11:45:13;;;;;;;;;;;;;;;;;;4611328;28;19928;-54
2022/03/21 11:47:38;;;;;;;;;;;;;;;;;;4612889;28;19925;-51
2022/03/21 11:50:03;;;;;;;;;;;;;;;;;;4653990;28;22111;-54
2022/03/21 11:52:28;;;;;;;;;;;;;;;;;;4676979;28;20083;-53
2022/03/21 11:54:54;;;;;;;;;;;;;;;;;;4671654;28;21674;-53
2022/03/21 11:57:19;;;;;;;;;;;;;;;;;;4713622;28;19928;-53
2022/03/21 11:59:46;;;;;;;;;;;;;;;;;;4693036;28;20100;-53
2022/03/21 12:02:11;;;;;;;;;;;;;;;;;;4696644;28;19921;-52
2022/03/21 12:04:37;;;;;;;;;;;;;;;;;;4721981;28;23271;-52
2022/03/21 12:07:02;;;;;;;;;;;;;;;;;;4756433;28;20654;-53
2022/03/21 12:09:27;;;;;;;;;;;;;;;;;;4805006;28;19987;-52
2022/03/21 12:11:53;;;;;;;;;;;;;;;;;;4814034;28;19925;-51
2022/03/21 12:14:19;;;;;;;;;;;;;;;;;;4802818;28;23739;-52
2022/03/21 12:16:44;;;;;;;;;;;;;;;;;;4841302;28;19972;-54
2022/03/21 12:19:09;;;;;;;;;;;;;;;;;;4810630;28;19921;-52
2022/03/21 12:21:34;;;;;;;;;;;;;;;;;;4866553;28;21403;-54
2022/03/21 12:23:59;;;;;;;;;;;;;;;;;;4864097;28;19922;-52
2022/03/21 12:26:24;;;;;;;;;;;;;;;;;;4770715;28;20690;-52
2022/03/21 12:31:34;;;;;;;;;;;;;;;;;;4670123;28;19952;-54
2022/03/21 12:33:59;;;;;;;;;;;;;;;;;;4489601;28;19922;-52
2022/03/21 12:36:24;;;;;;;;;;;;;;;;;;4562576;28;20190;-50
2022/03/21 12:38:49;;;;;;;;;;;;;;;;;;4596947;28;20635;-50
2022/03/21 12:41:14;;;;;;;;;;;;;;;;;;4686282;28;22084;-54
2022/03/21 12:43:39;;;;;;;;;;;;;;;;;;4665422;28;20021;-52
2022/03/21 12:46:04;;;;;;;;;;;;;;;;;;4676272;28;27582;-54
2022/03/21 12:48:30;;;;;;;;;;;;;;;;;;4698298;28;20533;-54
2022/03/21 12:50:55;;;;;;;;;;;;;;;;;;4745823;23;21496;-55
2022/03/21 12:53:21;;;;;;;;;;;;;;;;;;4725383;28;19962;-54
2022/03/21 12:55:46;;;;;;;;;;;;;;;;;;4687065;28;20477;-55
2022/03/21 12:58:11;;;;;;;;;;;;;;;;;;4647332;28;28588;-52
2022/03/21 13:00:37;;;;;;;;;;;;;;;;;;4676982;28;26308;-50
2022/03/21 13:03:02;;;;;;;;;;;;;;;;;;4651775;28;20659;-54
2022/03/21 13:10:55;;;;;;;;;;;;;;;;;;4666029;28;24247;-54
2022/03/21 13:13:20;;;;;;;;;;;;;;;;;;4601616;28;21176;-53
2022/03/21 13:15:45;;;;;;;;;;;;;;;;;;4700722;28;20039;-54
2022/03/21 13:18:10;;;;;;;;;;;;;;;;;;4705846;28;20681;-51
2022/03/21 13:20:40;;;;;;;;;;;;;;;;;;4589928;28;21480;-52
2022/03/21 13:23:05;;;;;;;;;;;;;;;;;;4693124;28;20023;-53
2022/03/21 13:25:30;;;;;;;;;;;;;;;;;;4594101;28;20401;-54
2022/03/21 13:27:55;;;;;;;;;;;;;;;;;;4722502;28;20011;-52
2022/03/21 13:30:21;;;;;;;;;;;;;;;;;;4789938;28;19947;-54
2022/03/21 13:32:46;;;;;;;;;;;;;;;;;;4764975;28;22714;-53
2022/03/21 13:35:12;;;;;;;;;;;;;;;;;;4813172;28;19928;-55
2022/03/21 13:37:37;;;;;;;;;;;;;;;;;;4797094;28;19929;-54
2022/03/21 13:40:02;;;;;;;;;;;;;;;;;;4784406;28;21236;-54
2022/03/21 13:42:27;;;;;;;;;;;;;;;;;;4825531;28;19945;-52
2022/03/21 13:44:53;;;;;;;;;;;;;;;;;;4818831;28;20329;-53
2022/03/21 13:47:19;;;;;;;;;;;;;;;;;;4819266;28;20008;-54
2022/03/21 13:49:44;;;;;;;;;;;;;;;;;;4839514;28;20473;-55
2022/03/21 13:52:09;;;;;;;;;;;;;;;;;;4841919;28;19925;-53
2022/03/21 13:54:34;;;;;;;;;;;;;;;;;;4828095;28;19929;-54
2022/03/21 13:57:00;;;;;;;;;;;;;;;;;;4811684;28;19921;-53
2022/03/21 13:59:27;;;;;;;;;;;;;;;;;;4819288;28;24013;-51
2022/03/21 14:01:52;;;;;;;;;;;;;;;;;;4823968;28;20008;-53
2022/03/21 14:04:18;;;;;;;;;;;;;;;;;;4807467;28;22297;-54
2022/03/21 14:06:43;;;;;;;;;;;;;;;;;;4762453;28;21739;-51
2022/03/21 14:09:08;;;;;;;;;;;;;;;;;;4733136;28;19921;-51
2022/03/21 14:11:34;;;;;;;;;;;;;;;;;;4673883;28;21098;-55
2022/03/21 14:14:00;;;;;;;;;;;;;;;;;;4698932;28;21469;-53
2022/03/21 14:16:25;;;;;;;;;;;;;;;;;;4731282;28;20039;-54
2022/03/21 14:18:50;;;;;;;;;;;;;;;;;;4763574;28;20875;-52
2022/03/21 14:21:15;;;;;;;;;;;;;;;;;;4814166;28;22713;-53
2022/03/21 14:23:41;;;;;;;;;;;;;;;;;;4865374;28;20399;-52
2022/03/21 14:28:50;;;;;;;;;;;;;;;;;;4869759;28;19928;-53
2022/03/21 14:31:15;;;;;;;;;;;;;;;;;;4872263;28;20314;-54
2022/03/21 14:33:40;;;;;;;;;;;;;;;;;;4882596;28;23526;-52
2022/03/21 14:36:05;;;;;;;;;;;;;;;;;;4892173;28;19973;-51
2022/03/21 14:38:30;;;;;;;;;;;;;;;;;;4882537;28;19928;-52
2022/03/21 14:40:55;;;;;;;;;;;;;;;;;;4874110;28;20380;-52
2022/03/21 14:43:25;;;;;;;;;;;;;;;;;;4874782;28;19957;-54
2022/03/21 14:45:50;;;;;;;;;;;;;;;;;;4885015;28;20016;-53
2022/03/21 14:48:16;;;;;;;;;;;;;;;;;;4889238;28;20219;-55
2022/03/21 14:50:41;;;;;;;;;;;;;;;;;;4888389;28;21647;-52
2022/03/21 14:53:06;;;;;;;;;;;;;;;;;;4889399;28;20281;-54
2022/03/21 14:55:31;;;;;;;;;;;;;;;;;;4883000;28;20361;-54
2022/03/21 14:57:56;;;;;;;;;;;;;;;;;;4873261;28;21925;-52
2022/03/21 15:00:22;;;;;;;;;;;;;;;;;;4819726;28;19921;-52
2022/03/21 15:02:47;;;;;;;;;;;;;;;;;;4780909;28;19921;-51
2022/03/21 15:05:12;;;;;;;;;;;;;;;;;;4812930;28;20834;-49
2022/03/21 15:07:37;;;;;;;;;;;;;;;;;;4844183;28;20353;-53
2022/03/21 15:10:20;;;;;;;;;;;;;;;;;;4898524;28;20588;-52
2022/03/21 15:12:46;;;;;;;;;;;;;;;;;;4914637;28;20013;-49
2022/03/21 15:15:11;;;;;;;;;;;;;;;;;;4921943;28;19921;-54
2022/03/21 15:17:37;;;;;;;;;;;;;;;;;;4935810;28;19922;-52
2022/03/21 15:20:05;;;;;;;;;;;;;;;;;;4946183;28;19941;-54
2022/03/21 15:22:31;;;;;;;;;;;;;;;;;;4962926;28;19928;-53
2022/03/21 15:24:58;;;;;;;;;;;;;;;;;;4949165;28;19922;-54
2022/03/21 15:27:23;;;;;;;;;;;;;;;;;;4953859;28;19926;-51
2022/03/21 15:29:48;;;;;;;;;;;;;;;;;;4951016;28;19928;-53
2022/03/21 15:32:13;;;;;;;;;;;;;;;;;;4955417;28;19932;-53
2022/03/21 15:34:39;;;;;;;;;;;;;;;;;;4958660;28;19945;-53
2022/03/21 15:42:32;;;;;;;;;;;;;;;;;;4957007;28;20012;-51
2022/03/21 15:44:57;;;;;;;;;;;;;;;;;;4943154;28;19921;-55
2022/03/21 15:47:22;;;;;;;;;;;;;;;;;;4937185;28;19926;-54
2022/03/21 15:49:49;;;;;;;;;;;;;;;;;;4936377;28;20444;-53
2022/03/21 15:52:14;;;;;;;;;;;;;;;;;;4954539;28;20400;-54
2022/03/21 15:54:39;;;;;;;;;;;;;;;;;;4964450;28;19944;-53
2022/03/21 15:57:04;;;;;;;;;;;;;;;;;;4967126;28;19929;-53
2022/03/21 15:59:29;;;;;;;;;;;;;;;;;;4973716;28;20272;-53
2022/03/21 16:01:54;;;;;;;;;;;;;;;;;;4991722;28;20003;-53
2022/03/21 16:04:20;;;;;;;;;;;;;;;;;;5005560;28;19933;-54
2022/03/21 16:06:45;;;;;;;;;;;;;;;;;;4991747;28;19922;-54
2022/03/21 16:09:10;;;;;;;;;;;;;;;;;;4999990;28;19925;-53
2022/03/21 16:11:35;;;;;;;;;;;;;;;;;;5005604;28;19968;-54
2022/03/21 16:14:00;;;;;;;;;;;;;;;;;;5008140;28;20336;-53
2022/03/21 16:16:25;;;;;;;;;;;;;;;;;;5014486;28;19917;-50
2022/03/21 16:18:51;;;;;;;;;;;;;;;;;;5012168;28;19913;-51
2022/03/21 16:21:17;;;;;;;;;;;;;;;;;;5012496;28;19920;-53
2022/03/21 16:23:42;;;;;;;;;;;;;;;;;;5013578;28;19921;-54
2022/03/21 16:26:08;;;;;;;;;;;;;;;;;;5017232;28;19937;-53
2022/03/21 16:28:33;;;;;;;;;;;;;;;;;;5001012;28;19914;-52
2022/03/21 16:30:58;;;;;;;;;;;;;;;;;;4998182;28;19960;-50
2022/03/21 16:33:25;;;;;;;;;;;;;;;;;;5012415;28;19936;-53
2022/03/21 16:35:50;;;;;;;;;;;;;;;;;;5000598;28;19914;-51
2022/03/21 16:38:15;;;;;;;;;;;;;;;;;;5008057;28;19925;-50
2022/03/21 16:40:40;;;;;;;;;;;;;;;;;;5004010;28;19914;-53
2022/03/21 16:43:06;;;;;;;;;;;;;;;;;;5001285;28;20373;-53
2022/03/21 16:45:31;;;;;;;;;;;;;;;;;;5006799;28;19914;-51
2022/03/21 16:47:58;;;;;;;;;;;;;;;;;;5000825;28;20024;-51
2022/03/21 16:50:23;;;;;;;;;;;;;;;;;;4999658;28;19961;-53
2022/03/21 16:52:48;;;;;;;;;;;;;;;;;;5009165;28;20916;-54
2022/03/21 16:55:13;;;;;;;;;;;;;;;;;;5003213;28;19924;-54
2022/03/21 16:57:39;;;;;;;;;;;;;;;;;;5009375;28;19964;-54
2022/03/21 17:00:08;;;;;;;;;;;;;;;;;;5002584;28;19929;-52
2022/03/21 17:02:33;;;;;;;;;;;;;;;;;;5001489;28;19914;-53
2022/03/21 17:04:58;;;;;;;;;;;;;;;;;;5007502;28;20423;-54
2022/03/21 17:07:26;;;;;;;;;;;;;;;;;;5003879;28;19968;-52
2022/03/21 17:09:51;;;;;;;;;;;;;;;;;;5003271;28;19921;-55
2022/03/21 17:12:16;;;;;;;;;;;;;;;;;;5000037;28;19913;-55